Terminal Aerodrome Forecast
Issued by NWS

Home | Current Version | Previous Version | Text Only | Print | Product List | Glossary On
Versions: 1 2 3 4 5 6 7 8 9 10 11 12 13 14 15 16 17
000
FTUS43 KILX 050528
TAFDEC
TAF
KDEC 050528Z 0506/0606 18008KT P6SM SCT060 SCT150
     FM050900 VRB04KT P6SM SCT250
     FM051500 21007KT P6SM SCT150
     FM060000 15005KT P6SM SCT250=

USA.gov is the U.S. government's official web portal to all federal, state and local government web resources and services.